Southern Lily — 9VJK4 — position and weather

sailwx.info

Track history (hours):
 
Tides and Currents Weather Stations Pressure Air Temp Water Temp Dewpoint Dewpoint Depression Visibility Wind Speed Wind Dir Waves Ship Positions

Southern Lily

Last reported at 2016-Jul-16 15:33 UTC. Time now 2016-Jul-23 23:04 UTC.
Position S 36°22' E 174°59'.

Length 146 m; draft 8.2 m.

Type: Cargo ship. MMSI: 565050000.

Date/timePositionNaut miles runAvg speedWind from/ knotsBaromVisibWave heightAir tempDewpointWater temp
2016-Jul-16 15:33S 36°22' E 174°59'1010.2
2016-Jul-16 14:33S 36°32' E 174°59'1110.2
2016-Jul-16 13:30S 36°41' E 174°53'9 9.0
2016-Jul-16 12:33S 36°50' E 174°50'3 2.6
2016-Jul-16 11:29S 36°50' E 174°47'0 0.2
2016-Jul-16 10:32S 36°51' E 174°47'0 0.0
2016-Jul-16 09:32S 36°51' E 174°47'0 0.0
2016-Jul-16 08:32S 36°51' E 174°47'0 0.0
2016-Jul-16 07:14S 36°51' E 174°47'0 0.0
2016-Jul-16 06:20S 36°51' E 174°47'0 0.0
2016-Jul-16 04:32S 36°51' E 174°47'0 0.0
2016-Jul-16 03:32S 36°51' E 174°47'0 0.0
2016-Jul-16 02:32S 36°51' E 174°47'0 0.0
2016-Jul-16 01:26S 36°51' E 174°47'0 0.0
2016-Jul-16 00:32S 36°51' E 174°47'0 0.0
2016-Jul-15 23:32S 36°51' E 174°47'0 0.0
2016-Jul-15 22:32S 36°51' E 174°47'0 0.0
2016-Jul-15 21:32S 36°51' E 174°47'0 0.0
2016-Jul-15 20:32S 36°51' E 174°47'0 0.0
2016-Jul-15 19:32S 36°51' E 174°47'0 0.0
2016-Jul-15 18:32S 36°51' E 174°47'0 0.0
2016-Jul-15 17:32S 36°51' E 174°47'0 0.0
2016-Jul-15 16:32S 36°51' E 174°47'0 0.0
2016-Jul-15 15:32S 36°51' E 174°47'0 0.0
2016-Jul-15 14:32S 36°51' E 174°47'0 0.0
2016-Jul-15 13:32S 36°51' E 174°47'0 0.0
2016-Jul-15 12:32S 36°51' E 174°47'0 0.0
2016-Jul-15 11:32S 36°51' E 174°47'0 0.0
2016-Jul-15 10:32S 36°51' E 174°47'0 0.0
2016-Jul-15 09:32S 36°51' E 174°47'0 0.0
2016-Jul-15 08:32S 36°51' E 174°47'0 0.0
2016-Jul-15 07:32S 36°51' E 174°47'0 0.0
2016-Jul-15 06:26S 36°51' E 174°47'0 0.0
2016-Jul-15 05:32S 36°51' E 174°47'0 0.0
2016-Jul-15 04:32S 36°51' E 174°47'0 0.0
2016-Jul-15 03:26S 36°51' E 174°47'0 0.0
2016-Jul-15 02:32S 36°51' E 174°47'0 0.0
2016-Jul-15 01:32S 36°51' E 174°47'0 0.0
2016-Jul-15 00:20S 36°51' E 174°47'0 0.0
2016-Jul-14 23:32S 36°51' E 174°47'0 0.0
2016-Jul-14 22:32S 36°51' E 174°47'0 0.0
2016-Jul-14 21:32S 36°51' E 174°47'0 0.0
2016-Jul-14 20:32S 36°51' E 174°47'0 0.0
2016-Jul-14 17:14S 36°51' E 174°47'0 0.0
2016-Jul-14 16:20S 36°51' E 174°47'0 0.0
2016-Jul-14 15:32S 36°51' E 174°47'0 0.0
2016-Jul-14 14:32S 36°51' E 174°47'0 0.0
2016-Jul-14 13:32S 36°51' E 174°47'0 0.0
2016-Jul-14 12:26S 36°51' E 174°47'0 0.0
2016-Jul-14 11:32S 36°51' E 174°47'0 0.0
2016-Jul-14 10:32S 36°51' E 174°47'0 0.0
2016-Jul-14 09:20S 36°51' E 174°47'0 0.0
2016-Jul-14 08:32S 36°51' E 174°47'0 0.0
2016-Jul-14 07:32S 36°51' E 174°47'0 0.0
2016-Jul-14 06:20S 36°51' E 174°47'2 2.0
2016-Jul-14 05:33S 36°50' E 174°49'8 7.9
2016-Jul-14 04:33S 36°43' E 174°52'5 5.2
2016-Jul-14 03:33S 36°39' E 174°56'8 8.3
2016-Jul-14 02:33S 36°31' E 174°59'9 9.0
2016-Jul-14 01:33S 36°22' E 174°59'1010.3
2016-Jul-14 00:33S 36°12' E 174°58'  
Track history (hours):
 
Tides and Currents Weather Stations Pressure Air Temp Water Temp Dewpoint Dewpoint Depression Visibility Wind Speed Wind Dir Waves Ship Positions

Southern Lily

Last reported at 2016-Jul-16 15:33 UTC. Time now 2016-Jul-23 23:04 UTC.
Position S 36°22' E 174°59'.

Length 146 m; draft 8.2 m.

Type: Cargo ship. MMSI: 565050000.

Date/timePositionNaut miles runAvg speedWind from/ knotsBaromVisibWave heightAir tempDewpointWater temp
2016-Jul-16 15:33S 36°22' E 174°59'1010.2
2016-Jul-16 14:33S 36°32' E 174°59'1110.2
2016-Jul-16 13:30S 36°41' E 174°53'9 9.0
2016-Jul-16 12:33S 36°50' E 174°50'3 2.6
2016-Jul-16 11:29S 36°50' E 174°47'0 0.2
2016-Jul-16 10:32S 36°51' E 174°47'0 0.0
2016-Jul-16 09:32S 36°51' E 174°47'0 0.0
2016-Jul-16 08:32S 36°51' E 174°47'0 0.0
2016-Jul-16 07:14S 36°51' E 174°47'0 0.0
2016-Jul-16 06:20S 36°51' E 174°47'0 0.0
2016-Jul-16 04:32S 36°51' E 174°47'0 0.0
2016-Jul-16 03:32S 36°51' E 174°47'0 0.0
2016-Jul-16 02:32S 36°51' E 174°47'0 0.0
2016-Jul-16 01:26S 36°51' E 174°47'0 0.0
2016-Jul-16 00:32S 36°51' E 174°47'0 0.0
2016-Jul-15 23:32S 36°51' E 174°47'0 0.0
2016-Jul-15 22:32S 36°51' E 174°47'0 0.0
2016-Jul-15 21:32S 36°51' E 174°47'0 0.0
2016-Jul-15 20:32S 36°51' E 174°47'0 0.0
2016-Jul-15 19:32S 36°51' E 174°47'0 0.0
2016-Jul-15 18:32S 36°51' E 174°47'0 0.0
2016-Jul-15 17:32S 36°51' E 174°47'0 0.0
2016-Jul-15 16:32S 36°51' E 174°47'0 0.0
2016-Jul-15 15:32S 36°51' E 174°47'0 0.0
2016-Jul-15 14:32S 36°51' E 174°47'0 0.0
2016-Jul-15 13:32S 36°51' E 174°47'0 0.0
2016-Jul-15 12:32S 36°51' E 174°47'0 0.0
2016-Jul-15 11:32S 36°51' E 174°47'0 0.0
2016-Jul-15 10:32S 36°51' E 174°47'0 0.0
2016-Jul-15 09:32S 36°51' E 174°47'0 0.0
2016-Jul-15 08:32S 36°51' E 174°47'0 0.0
2016-Jul-15 07:32S 36°51' E 174°47'0 0.0
2016-Jul-15 06:26S 36°51' E 174°47'0 0.0
2016-Jul-15 05:32S 36°51' E 174°47'0 0.0
2016-Jul-15 04:32S 36°51' E 174°47'0 0.0
2016-Jul-15 03:26S 36°51' E 174°47'0 0.0
2016-Jul-15 02:32S 36°51' E 174°47'0 0.0
2016-Jul-15 01:32S 36°51' E 174°47'0 0.0
2016-Jul-15 00:20S 36°51' E 174°47'0 0.0
2016-Jul-14 23:32S 36°51' E 174°47'0 0.0
2016-Jul-14 22:32S 36°51' E 174°47'0 0.0
2016-Jul-14 21:32S 36°51' E 174°47'0 0.0
2016-Jul-14 20:32S 36°51' E 174°47'0 0.0
2016-Jul-14 17:14S 36°51' E 174°47'0 0.0
2016-Jul-14 16:20S 36°51' E 174°47'0 0.0
2016-Jul-14 15:32S 36°51' E 174°47'0 0.0
2016-Jul-14 14:32S 36°51' E 174°47'0 0.0
2016-Jul-14 13:32S 36°51' E 174°47'0 0.0
2016-Jul-14 12:26S 36°51' E 174°47'0 0.0
2016-Jul-14 11:32S 36°51' E 174°47'0 0.0
2016-Jul-14 10:32S 36°51' E 174°47'0 0.0
2016-Jul-14 09:20S 36°51' E 174°47'0 0.0
2016-Jul-14 08:32S 36°51' E 174°47'0 0.0
2016-Jul-14 07:32S 36°51' E 174°47'0 0.0
2016-Jul-14 06:20S 36°51' E 174°47'2 2.0
2016-Jul-14 05:33S 36°50' E 174°49'8 7.9
2016-Jul-14 04:33S 36°43' E 174°52'5 5.2
2016-Jul-14 03:33S 36°39' E 174°56'8 8.3
2016-Jul-14 02:33S 36°31' E 174°59'9 9.0
2016-Jul-14 01:33S 36°22' E 174°59'1010.3
2016-Jul-14 00:33S 36°12' E 174°58'  

Dump ship's entire track history